sensor_id;sensor_type;location;lat;lon;timestamp;pressure;altitude;pressure_sealevel;temperature;humidity
706;BME280;21234;48.690;9.016;2023-02-13T00:01:21;97959.03;;;0.48;100.00
706;BME280;21234;48.690;9.016;2023-02-13T00:03:47;97955.53;;;0.48;100.00
706;BME280;21234;48.690;9.016;2023-02-13T00:06:14;97954.81;;;0.55;99.55
706;BME280;21234;48.690;9.016;2023-02-13T00:08:42;97955.94;;;0.53;99.31
706;BME280;21234;48.690;9.016;2023-02-13T00:11:09;97952.69;;;0.59;99.40
706;BME280;21234;48.690;9.016;2023-02-13T00:13:35;97946.50;;;0.49;99.17
706;BME280;21234;48.690;9.016;2023-02-13T00:16:03;97952.44;;;0.43;99.84
706;BME280;21234;48.690;9.016;2023-02-13T00:18:34;97960.38;;;0.25;100.00
706;BME280;21234;48.690;9.016;2023-02-13T00:21:03;97952.09;;;0.18;100.00
706;BME280;21234;48.690;9.016;2023-02-13T00:23:31;97957.59;;;0.07;100.00
706;BME280;21234;48.690;9.016;2023-02-13T00:26:03;97957.44;;;0.18;100.00
706;BME280;21234;48.690;9.016;2023-02-13T00:28:30;97952.78;;;0.30;100.00
706;BME280;21234;48.690;9.016;2023-02-13T00:31:02;97965.47;;;0.28;98.80
706;BME280;21234;48.690;9.016;2023-02-13T00:33:29;97960.75;;;0.40;98.61
706;BME280;21234;48.690;9.016;2023-02-13T00:36:01;97957.66;;;0.44;97.79
706;BME280;21234;48.690;9.016;2023-02-13T00:38:28;97949.78;;;0.33;98.30
706;BME280;21234;48.690;9.016;2023-02-13T00:40:55;97962.34;;;0.32;97.71
706;BME280;21234;48.690;9.016;2023-02-13T00:43:23;97963.00;;;0.34;98.31
706;BME280;21234;48.690;9.016;2023-02-13T00:45:50;97961.66;;;0.30;98.35
706;BME280;21234;48.690;9.016;2023-02-13T00:48:16;97965.16;;;0.31;98.66
706;BME280;21234;48.690;9.016;2023-02-13T00:50:43;97968.22;;;0.36;98.75
706;BME280;21234;48.690;9.016;2023-02-13T00:53:11;97959.50;;;0.34;99.38
706;BME280;21234;48.690;9.016;2023-02-13T00:55:38;97957.81;;;0.33;98.79
706;BME280;21234;48.690;9.016;2023-02-13T00:58:04;97950.81;;;0.32;99.02
706;BME280;21234;48.690;9.016;2023-02-13T01:00:32;97962.78;;;0.28;99.38
706;BME280;21234;48.690;9.016;2023-02-13T01:02:59;97947.78;;;0.45;99.70
706;BME280;21234;48.690;9.016;2023-02-13T01:05:26;97942.72;;;0.42;99.33
706;BME280;21234;48.690;9.016;2023-02-13T01:07:53;97941.44;;;0.46;99.57
706;BME280;21234;48.690;9.016;2023-02-13T01:10:20;97947.50;;;0.48;99.62
706;BME280;21234;48.690;9.016;2023-02-13T01:12:46;97954.09;;;0.53;99.00
706;BME280;21234;48.690;9.016;2023-02-13T01:15:13;97947.91;;;0.53;98.19
706;BME280;21234;48.690;9.016;2023-02-13T01:17:41;97945.50;;;0.59;97.32
706;BME280;21234;48.690;9.016;2023-02-13T01:20:10;97945.38;;;0.51;97.69
706;BME280;21234;48.690;9.016;2023-02-13T01:22:37;97945.09;;;0.54;97.91
706;BME280;21234;48.690;9.016;2023-02-13T01:25:05;97952.13;;;0.55;97.70
706;BME280;21234;48.690;9.016;2023-02-13T01:27:32;97947.63;;;0.56;96.44
706;BME280;21234;48.690;9.016;2023-02-13T01:29:59;97946.91;;;0.54;95.52
706;BME280;21234;48.690;9.016;2023-02-13T01:32:26;97942.38;;;0.27;95.88
706;BME280;21234;48.690;9.016;2023-02-13T01:34:54;97935.53;;;0.42;96.39
706;BME280;21234;48.690;9.016;2023-02-13T01:37:20;97940.38;;;0.29;96.03
706;BME280;21234;48.690;9.016;2023-02-13T01:39:47;97930.06;;;0.34;96.43
706;BME280;21234;48.690;9.016;2023-02-13T01:42:15;97931.13;;;0.14;96.93
706;BME280;21234;48.690;9.016;2023-02-13T01:44:48;97931.16;;;0.04;97.59
706;BME280;21234;48.690;9.016;2023-02-13T01:47:21;97927.19;;;0.18;97.14
706;BME280;21234;48.690;9.016;2023-02-13T01:49:58;97929.88;;;0.08;97.47
706;BME280;21234;48.690;9.016;2023-02-13T01:52:27;97936.34;;;0.15;97.74
706;BME280;21234;48.690;9.016;2023-02-13T01:54:54;97931.53;;;0.28;96.84
706;BME280;21234;48.690;9.016;2023-02-13T01:57:23;97928.44;;;0.23;96.54
706;BME280;21234;48.690;9.016;2023-02-13T01:59:55;97931.00;;;0.06;97.36
706;BME280;21234;48.690;9.016;2023-02-13T02:02:23;97926.94;;;0.02;96.85
706;BME280;21234;48.690;9.016;2023-02-13T02:04:50;97933.03;;;-0.16;97.76
706;BME280;21234;48.690;9.016;2023-02-13T02:07:22;97934.72;;;-0.15;97.66
706;BME280;21234;48.690;9.016;2023-02-13T02:09:51;97925.56;;;-0.03;97.85
706;BME280;21234;48.690;9.016;2023-02-13T02:12:23;97921.91;;;-0.02;97.65
706;BME280;21234;48.690;9.016;2023-02-13T02:14:52;97928.47;;;0.14;97.29
706;BME280;21234;48.690;9.016;2023-02-13T02:17:20;97933.97;;;0.03;96.40
706;BME280;21234;48.690;9.016;2023-02-13T02:19:55;97936.47;;;0.23;96.50
706;BME280;21234;48.690;9.016;2023-02-13T02:25:49;97938.03;;;0.07;96.60
706;BME280;21234;48.690;9.016;2023-02-13T02:28:55;97944.97;;;-0.20;96.26
706;BME280;21234;48.690;9.016;2023-02-13T02:34:36;97932.03;;;-0.05;97.04
706;BME280;21234;48.690;9.016;2023-02-13T02:37:16;97935.66;;;0.04;96.21
706;BME280;21234;48.690;9.016;2023-02-13T02:39:55;97942.44;;;-0.02;96.66
706;BME280;21234;48.690;9.016;2023-02-13T02:42:33;97936.25;;;-0.03;96.29
706;BME280;21234;48.690;9.016;2023-02-13T02:45:20;97934.28;;;-0.10;96.38
706;BME280;21234;48.690;9.016;2023-02-13T02:48:08;97930.91;;;-0.12;95.86
706;BME280;21234;48.690;9.016;2023-02-13T02:51:01;97933.53;;;0.07;95.71
706;BME280;21234;48.690;9.016;2023-02-13T02:53:38;97932.41;;;0.10;96.17
706;BME280;21234;48.690;9.016;2023-02-13T02:56:11;97929.59;;;0.02;97.05
706;BME280;21234;48.690;9.016;2023-02-13T02:58:42;97929.91;;;-0.02;97.51
706;BME280;21234;48.690;9.016;2023-02-13T03:01:29;97929.59;;;0.02;97.35
706;BME280;21234;48.690;9.016;2023-02-13T03:04:17;97935.25;;;-0.02;97.64
706;BME280;21234;48.690;9.016;2023-02-13T03:07:06;97932.69;;;0.07;96.71
706;BME280;21234;48.690;9.016;2023-02-13T03:09:36;97929.22;;;-0.04;95.87
706;BME280;21234;48.690;9.016;2023-02-13T03:12:23;97935.66;;;0.04;96.51
706;BME280;21234;48.690;9.016;2023-02-13T03:15:10;97939.34;;;-0.07;96.63
706;BME280;21234;48.690;9.016;2023-02-13T03:17:36;97938.91;;;-0.03;95.95
706;BME280;21234;48.690;9.016;2023-02-13T03:20:27;97939.91;;;-0.23;95.99
706;BME280;21234;48.690;9.016;2023-02-13T03:23:22;97944.56;;;-0.25;95.52
706;BME280;21234;48.690;9.016;2023-02-13T03:26:04;97936.97;;;-0.10;95.21
706;BME280;21234;48.690;9.016;2023-02-13T03:28:37;97937.25;;;-0.23;94.72
706;BME280;21234;48.690;9.016;2023-02-13T03:31:30;97948.06;;;-0.24;94.99
706;BME280;21234;48.690;9.016;2023-02-13T03:34:01;97945.44;;;-0.34;95.71
706;BME280;21234;48.690;9.016;2023-02-13T03:36:39;97947.50;;;-0.28;94.99
706;BME280;21234;48.690;9.016;2023-02-13T03:39:35;97951.31;;;-0.30;95.30
706;BME280;21234;48.690;9.016;2023-02-13T03:42:07;97942.47;;;-0.41;95.20
706;BME280;21234;48.690;9.016;2023-02-13T03:44:40;97947.25;;;-0.35;96.48
706;BME280;21234;48.690;9.016;2023-02-13T03:47:09;97941.59;;;-0.22;96.53
706;BME280;21234;48.690;9.016;2023-02-13T03:49:40;97938.78;;;-0.30;97.24
706;BME280;21234;48.690;9.016;2023-02-13T03:52:30;97940.34;;;-0.27;97.21
706;BME280;21234;48.690;9.016;2023-02-13T03:55:03;97941.34;;;-0.38;96.86
706;BME280;21234;48.690;9.016;2023-02-13T03:57:52;97947.78;;;-0.31;96.62
706;BME280;21234;48.690;9.016;2023-02-13T04:00:39;97945.41;;;-0.24;95.92
706;BME280;21234;48.690;9.016;2023-02-13T04:03:12;97948.09;;;-0.34;97.52
706;BME280;21234;48.690;9.016;2023-02-13T04:05:43;97953.31;;;-0.32;96.50
706;BME280;21234;48.690;9.016;2023-02-13T04:08:12;97951.44;;;-0.13;95.23
706;BME280;21234;48.690;9.016;2023-02-13T04:10:46;97962.44;;;-0.35;95.96
706;BME280;21234;48.690;9.016;2023-02-13T04:13:17;97959.31;;;-0.30;96.10
706;BME280;21234;48.690;9.016;2023-02-13T04:15:49;97968.91;;;-0.38;96.00
706;BME280;21234;48.690;9.016;2023-02-13T04:18:20;97954.28;;;-0.43;95.95
706;BME280;21234;48.690;9.016;2023-02-13T04:20:48;97960.47;;;-0.33;95.92
706;BME280;21234;48.690;9.016;2023-02-13T04:23:15;97964.41;;;-0.37;96.33
706;BME280;21234;48.690;9.016;2023-02-13T04:25:46;97963.44;;;-0.46;97.13
706;BME280;21234;48.690;9.016;2023-02-13T04:28:14;97962.88;;;-0.40;97.71
706;BME280;21234;48.690;9.016;2023-02-13T04:30:40;97962.00;;;-0.50;97.83
706;BME280;21234;48.690;9.016;2023-02-13T04:33:07;97969.34;;;-0.42;97.40
706;BME280;21234;48.690;9.016;2023-02-13T04:35:34;97969.75;;;-0.37;97.58
706;BME280;21234;48.690;9.016;2023-02-13T04:38:01;97975.22;;;-0.48;96.47
706;BME280;21234;48.690;9.016;2023-02-13T04:40:28;97963.16;;;-0.43;95.93
706;BME280;21234;48.690;9.016;2023-02-13T04:42:56;97963.28;;;-0.44;96.01
706;BME280;21234;48.690;9.016;2023-02-13T04:45:23;97967.91;;;-0.56;96.84
706;BME280;21234;48.690;9.016;2023-02-13T04:47:50;97970.31;;;-0.53;97.03
706;BME280;21234;48.690;9.016;2023-02-13T04:50:17;97971.28;;;-0.54;97.23
706;BME280;21234;48.690;9.016;2023-02-13T04:52:44;97965.94;;;-0.54;97.92
706;BME280;21234;48.690;9.016;2023-02-13T04:55:11;97965.66;;;-0.51;98.74
706;BME280;21234;48.690;9.016;2023-02-13T04:57:38;97963.28;;;-0.44;97.24
706;BME280;21234;48.690;9.016;2023-02-13T05:00:07;97974.38;;;-0.58;97.88
706;BME280;21234;48.690;9.016;2023-02-13T05:02:34;97969.16;;;-0.60;98.66
706;BME280;21234;48.690;9.016;2023-02-13T05:05:01;97979.69;;;-0.78;100.00
706;BME280;21234;48.690;9.016;2023-02-13T05:07:28;97969.44;;;-0.73;99.78
706;BME280;21234;48.690;9.016;2023-02-13T05:09:54;97972.38;;;-0.85;100.00
706;BME280;21234;48.690;9.016;2023-02-13T05:12:21;97974.63;;;-0.81;100.00
706;BME280;21234;48.690;9.016;2023-02-13T05:14:48;97965.50;;;-0.78;99.67
706;BME280;21234;48.690;9.016;2023-02-13T05:17:16;97968.34;;;-0.70;98.82
706;BME280;21234;48.690;9.016;2023-02-13T05:19:42;97967.59;;;-0.82;99.07
706;BME280;21234;48.690;9.016;2023-02-13T05:22:09;97976.59;;;-0.83;98.26
706;BME280;21234;48.690;9.016;2023-02-13T05:24:54;97967.88;;;-0.85;97.69
706;BME280;21234;48.690;9.016;2023-02-13T05:27:20;97968.97;;;-0.97;98.15
706;BME280;21234;48.690;9.016;2023-02-13T05:29:47;97976.00;;;-0.96;97.90
706;BME280;21234;48.690;9.016;2023-02-13T05:32:15;97969.97;;;-0.98;97.97
706;BME280;21234;48.690;9.016;2023-02-13T05:34:42;97968.81;;;-1.05;97.73
706;BME280;21234;48.690;9.016;2023-02-13T05:37:09;97971.78;;;-0.98;96.99
706;BME280;21234;48.690;9.016;2023-02-13T05:39:35;97968.56;;;-0.92;96.51
706;BME280;21234;48.690;9.016;2023-02-13T05:42:02;97970.00;;;-0.79;95.41
706;BME280;21234;48.690;9.016;2023-02-13T05:44:30;97965.63;;;-0.80;95.65
706;BME280;21234;48.690;9.016;2023-02-13T05:46:56;97969.69;;;-0.85;95.63
706;BME280;21234;48.690;9.016;2023-02-13T05:49:24;97967.00;;;-1.05;96.29
706;BME280;21234;48.690;9.016;2023-02-13T05:51:51;97968.00;;;-0.86;95.56
706;BME280;21234;48.690;9.016;2023-02-13T05:54:18;97965.09;;;-0.64;95.02
706;BME280;21234;48.690;9.016;2023-02-13T05:56:45;97966.31;;;-0.87;95.40
706;BME280;21234;48.690;9.016;2023-02-13T05:59:12;97965.63;;;-0.99;96.39
706;BME280;21234;48.690;9.016;2023-02-13T06:01:39;97962.25;;;-0.82;96.15
706;BME280;21234;48.690;9.016;2023-02-13T06:04:06;97966.16;;;-0.95;96.72
706;BME280;21234;48.690;9.016;2023-02-13T06:06:34;97968.41;;;-0.91;97.02
706;BME280;21234;48.690;9.016;2023-02-13T06:09:00;97971.63;;;-0.97;97.03
706;BME280;21234;48.690;9.016;2023-02-13T06:11:27;97974.75;;;-1.02;97.44
706;BME280;21234;48.690;9.016;2023-02-13T06:13:54;97973.50;;;-0.88;96.80
706;BME280;21234;48.690;9.016;2023-02-13T06:16:20;97967.88;;;-0.85;96.84
706;BME280;21234;48.690;9.016;2023-02-13T06:18:47;97970.81;;;-0.88;96.48
706;BME280;21234;48.690;9.016;2023-02-13T06:21:14;97971.56;;;-0.76;96.45
706;BME280;21234;48.690;9.016;2023-02-13T06:23:42;97971.41;;;-0.75;96.73
706;BME280;21234;48.690;9.016;2023-02-13T06:26:09;97972.13;;;-0.73;96.23
706;BME280;21234;48.690;9.016;2023-02-13T06:28:35;97971.81;;;-0.79;96.26
706;BME280;21234;48.690;9.016;2023-02-13T06:31:02;97970.00;;;-0.79;96.79
706;BME280;21234;48.690;9.016;2023-02-13T06:33:29;97971.25;;;-0.83;96.86
706;BME280;21234;48.690;9.016;2023-02-13T06:35:56;97970.59;;;-0.65;96.34
706;BME280;21234;48.690;9.016;2023-02-13T06:38:23;97970.44;;;-0.74;95.71
706;BME280;21234;48.690;9.016;2023-02-13T06:40:51;97968.16;;;-0.78;96.41
706;BME280;21234;48.690;9.016;2023-02-13T06:43:17;97968.75;;;-0.75;96.23
706;BME280;21234;48.690;9.016;2023-02-13T06:45:44;97966.91;;;-0.74;96.58
706;BME280;21234;48.690;9.016;2023-02-13T06:48:12;97969.72;;;-0.56;95.82
706;BME280;21234;48.690;9.016;2023-02-13T06:50:39;97966.22;;;-0.66;96.91
706;BME280;21234;48.690;9.016;2023-02-13T06:53:06;97961.44;;;-0.73;99.58
706;BME280;21234;48.690;9.016;2023-02-13T06:55:33;97969.44;;;-0.63;98.79
706;BME280;21234;48.690;9.016;2023-02-13T06:58:01;97976.47;;;-0.62;98.09
706;BME280;21234;48.690;9.016;2023-02-13T07:00:27;97977.44;;;-0.63;98.15
706;BME280;21234;48.690;9.016;2023-02-13T07:03:00;97977.19;;;-0.50;96.76
706;BME280;21234;48.690;9.016;2023-02-13T07:05:27;97978.59;;;-0.46;96.14
706;BME280;21234;48.690;9.016;2023-02-13T07:07:54;97981.41;;;-0.48;96.26
706;BME280;21234;48.690;9.016;2023-02-13T07:10:20;97986.63;;;-0.17;95.31
706;BME280;21234;48.690;9.016;2023-02-13T07:12:47;97985.50;;;-0.34;94.50
706;BME280;21234;48.690;9.016;2023-02-13T07:15:16;97984.50;;;-0.23;94.84
706;BME280;21234;48.690;9.016;2023-02-13T07:17:42;97986.06;;;-0.11;94.54
706;BME280;21234;48.690;9.016;2023-02-13T07:20:10;97989.28;;;-0.17;94.65
706;BME280;21234;48.690;9.016;2023-02-13T07:22:36;97985.59;;;0.32;93.29
706;BME280;21234;48.690;9.016;2023-02-13T07:25:03;97991.13;;;0.58;91.47
706;BME280;21234;48.690;9.016;2023-02-13T07:27:30;97984.13;;;0.84;89.71
706;BME280;21234;48.690;9.016;2023-02-13T07:29:57;97985.31;;;0.99;89.10
706;BME280;21234;48.690;9.016;2023-02-13T07:32:25;97992.56;;;1.17;88.75
706;BME280;21234;48.690;9.016;2023-02-13T07:34:51;97989.00;;;1.44;86.76
706;BME280;21234;48.690;9.016;2023-02-13T07:37:18;97988.41;;;1.67;85.28
706;BME280;21234;48.690;9.016;2023-02-13T07:39:45;97983.84;;;2.21;83.60
706;BME280;21234;48.690;9.016;2023-02-13T07:42:11;97987.84;;;2.17;82.78
706;BME280;21234;48.690;9.016;2023-02-13T07:44:38;98000.06;;;1.76;85.53
706;BME280;21234;48.690;9.016;2023-02-13T07:47:05;98009.56;;;1.25;87.86
706;BME280;21234;48.690;9.016;2023-02-13T07:49:33;98004.97;;;1.18;89.32
706;BME280;21234;48.690;9.016;2023-02-13T07:52:01;97998.34;;;1.12;90.28
706;BME280;21234;48.690;9.016;2023-02-13T07:54:28;98001.50;;;0.98;90.87
706;BME280;21234;48.690;9.016;2023-02-13T07:56:54;98003.06;;;1.00;93.20
706;BME280;21234;48.690;9.016;2023-02-13T07:59:21;98005.09;;;0.89;95.76
706;BME280;21234;48.690;9.016;2023-02-13T08:01:48;98006.09;;;0.88;96.37
706;BME280;21234;48.690;9.016;2023-02-13T08:04:14;98002.91;;;1.02;97.02
706;BME280;21234;48.690;9.016;2023-02-13T08:06:42;98003.69;;;1.40;95.26
706;BME280;21234;48.690;9.016;2023-02-13T08:09:16;98002.44;;;1.61;94.49
706;BME280;21234;48.690;9.016;2023-02-13T08:12:01;97997.91;;;1.62;94.17
706;BME280;21234;48.690;9.016;2023-02-13T08:14:28;98001.59;;;1.79;94.99
706;BME280;21234;48.690;9.016;2023-02-13T08:16:55;98002.75;;;1.94;94.29
706;BME280;21234;48.690;9.016;2023-02-13T08:19:21;98003.03;;;1.73;95.92
706;BME280;21234;48.690;9.016;2023-02-13T08:21:50;98004.88;;;1.90;95.86
706;BME280;21234;48.690;9.016;2023-02-13T08:24:16;97991.97;;;2.55;94.28
706;BME280;21234;48.690;9.016;2023-02-13T08:26:43;97997.16;;;3.91;88.21
706;BME280;21234;48.690;9.016;2023-02-13T08:29:10;97994.06;;;4.92;79.29
706;BME280;21234;48.690;9.016;2023-02-13T08:31:36;97986.94;;;4.44;79.48
706;BME280;21234;48.690;9.016;2023-02-13T08:34:03;97985.75;;;4.38;80.51
706;BME280;21234;48.690;9.016;2023-02-13T08:36:30;97987.09;;;4.10;81.40
706;BME280;21234;48.690;9.016;2023-02-13T08:38:58;97993.84;;;3.31;84.60
706;BME280;21234;48.690;9.016;2023-02-13T08:41:25;97984.97;;;2.96;87.10
706;BME280;21234;48.690;9.016;2023-02-13T08:43:52;97990.78;;;2.84;89.22
706;BME280;21234;48.690;9.016;2023-02-13T08:46:19;97993.38;;;2.67;90.80
706;BME280;21234;48.690;9.016;2023-02-13T08:48:46;97986.44;;;2.57;91.90
706;BME280;21234;48.690;9.016;2023-02-13T08:51:13;97982.03;;;2.48;92.75
706;BME280;21234;48.690;9.016;2023-02-13T08:53:40;97980.03;;;2.24;93.91
706;BME280;21234;48.690;9.016;2023-02-13T08:56:09;97985.16;;;2.17;94.88
706;BME280;21234;48.690;9.016;2023-02-13T08:58:36;97986.00;;;2.18;96.03
706;BME280;21234;48.690;9.016;2023-02-13T09:01:04;97983.38;;;2.26;95.35
706;BME280;21234;48.690;9.016;2023-02-13T09:03:31;97979.44;;;2.38;93.98
706;BME280;21234;48.690;9.016;2023-02-13T09:05:58;97987.53;;;2.46;94.28
706;BME280;21234;48.690;9.016;2023-02-13T09:08:25;97984.06;;;2.80;93.64
706;BME280;21234;48.690;9.016;2023-02-13T09:10:57;97976.09;;;2.70;91.48
706;BME280;21234;48.690;9.016;2023-02-13T09:13:27;97981.16;;;2.73;91.50
706;BME280;21234;48.690;9.016;2023-02-13T09:15:57;97980.06;;;2.84;91.29
706;BME280;21234;48.690;9.016;2023-02-13T09:18:24;97984.44;;;2.93;90.53
706;BME280;21234;48.690;9.016;2023-02-13T09:20:56;97987.97;;;2.93;90.91
706;BME280;21234;48.690;9.016;2023-02-13T09:23:23;97978.91;;;2.94;90.80
706;BME280;21234;48.690;9.016;2023-02-13T09:25:49;97978.06;;;2.94;90.43
706;BME280;21234;48.690;9.016;2023-02-13T09:28:16;97989.16;;;2.99;89.56
706;BME280;21234;48.690;9.016;2023-02-13T09:30:44;97982.19;;;3.14;91.05
706;BME280;21234;48.690;9.016;2023-02-13T09:33:11;97981.56;;;3.28;89.44
706;BME280;21234;48.690;9.016;2023-02-13T09:35:37;97981.75;;;3.35;88.38
706;BME280;21234;48.690;9.016;2023-02-13T09:38:05;97985.31;;;3.44;88.70
706;BME280;21234;48.690;9.016;2023-02-13T09:40:36;97984.00;;;3.56;87.85
706;BME280;21234;48.690;9.016;2023-02-13T09:43:06;97991.78;;;3.83;87.75
706;BME280;21234;48.690;9.016;2023-02-13T09:45:34;97989.59;;;3.79;85.68
706;BME280;21234;48.690;9.016;2023-02-13T09:48:03;97987.94;;;3.86;85.52
706;BME280;21234;48.690;9.016;2023-02-13T09:50:31;97986.03;;;3.62;85.16
706;BME280;21234;48.690;9.016;2023-02-13T09:52:59;97985.38;;;3.68;85.70
706;BME280;21234;48.690;9.016;2023-02-13T09:55:31;97979.16;;;3.67;85.75
706;BME280;21234;48.690;9.016;2023-02-13T09:58:08;97989.94;;;3.84;86.08
706;BME280;21234;48.690;9.016;2023-02-13T10:00:39;97987.75;;;3.95;85.32
706;BME280;21234;48.690;9.016;2023-02-13T10:03:17;97985.41;;;3.84;84.62
706;BME280;21234;48.690;9.016;2023-02-13T10:05:55;97988.94;;;4.01;84.29
706;BME280;21234;48.690;9.016;2023-02-13T10:08:31;97987.13;;;4.18;83.96
706;BME280;21234;48.690;9.016;2023-02-13T10:11:05;97993.31;;;4.26;82.81
706;BME280;21234;48.690;9.016;2023-02-13T10:13:46;97992.13;;;4.37;82.68
706;BME280;21234;48.690;9.016;2023-02-13T10:16:18;97992.47;;;4.50;82.11
706;BME280;21234;48.690;9.016;2023-02-13T10:18:50;97994.97;;;4.68;81.71
706;BME280;21234;48.690;9.016;2023-02-13T10:21:20;97999.22;;;4.54;80.04
706;BME280;21234;48.690;9.016;2023-02-13T10:23:53;97989.63;;;4.52;80.87
706;BME280;21234;48.690;9.016;2023-02-13T10:26:23;97994.13;;;4.67;80.10
706;BME280;21234;48.690;9.016;2023-02-13T10:29:10;97993.75;;;4.87;80.39
706;BME280;21234;48.690;9.016;2023-02-13T10:31:54;97990.69;;;4.90;78.42
706;BME280;21234;48.690;9.016;2023-02-13T10:34:26;98000.13;;;4.94;79.34
706;BME280;21234;48.690;9.016;2023-02-13T10:36:57;97996.53;;;5.10;78.97
706;BME280;21234;48.690;9.016;2023-02-13T10:39:26;97993.00;;;5.09;78.54
706;BME280;21234;48.690;9.016;2023-02-13T10:41:54;97991.22;;;5.32;78.51
706;BME280;21234;48.690;9.016;2023-02-13T10:44:34;97989.00;;;5.36;76.93
706;BME280;21234;48.690;9.016;2023-02-13T10:47:15;97994.69;;;5.49;77.00
706;BME280;21234;48.690;9.016;2023-02-13T10:49:54;97986.19;;;5.21;75.98
706;BME280;21234;48.690;9.016;2023-02-13T10:52:31;97982.31;;;5.24;78.42
706;BME280;21234;48.690;9.016;2023-02-13T10:55:13;97977.84;;;5.47;77.69
706;BME280;21234;48.690;9.016;2023-02-13T10:58:01;97977.94;;;5.54;76.36
706;BME280;21234;48.690;9.016;2023-02-13T11:00:34;97977.25;;;5.60;76.13
706;BME280;21234;48.690;9.016;2023-02-13T11:03:03;97977.81;;;5.78;77.16
706;BME280;21234;48.690;9.016;2023-02-13T11:05:35;97971.72;;;5.84;74.81
706;BME280;21234;48.690;9.016;2023-02-13T11:08:03;97960.81;;;6.00;74.25
706;BME280;21234;48.690;9.016;2023-02-13T11:10:31;97958.63;;;6.19;72.40
706;BME280;21234;48.690;9.016;2023-02-13T11:13:14;97962.81;;;6.06;71.94
706;BME280;21234;48.690;9.016;2023-02-13T11:15:41;97970.31;;;5.88;73.11
706;BME280;21234;48.690;9.016;2023-02-13T11:18:13;97953.03;;;6.05;73.52
706;BME280;21234;48.690;9.016;2023-02-13T11:20:43;97951.19;;;6.21;73.18
706;BME280;21234;48.690;9.016;2023-02-13T11:23:32;97943.00;;;6.14;71.74
706;BME280;21234;48.690;9.016;2023-02-13T11:26:01;97943.38;;;6.11;71.85
706;BME280;21234;48.690;9.016;2023-02-13T11:28:29;97944.69;;;6.15;71.26
706;BME280;21234;48.690;9.016;2023-02-13T11:31:09;97937.59;;;6.14;70.52
706;BME280;21234;48.690;9.016;2023-02-13T11:33:36;97945.03;;;6.12;71.13
706;BME280;21234;48.690;9.016;2023-02-13T11:36:07;97942.00;;;6.15;72.49
706;BME280;21234;48.690;9.016;2023-02-13T11:38:34;97946.09;;;6.26;70.30
706;BME280;21234;48.690;9.016;2023-02-13T11:41:07;97956.53;;;6.29;70.58
706;BME280;21234;48.690;9.016;2023-02-13T11:43:36;97949.09;;;6.31;71.42
706;BME280;21234;48.690;9.016;2023-02-13T11:46:05;97953.19;;;6.27;68.44
706;BME280;21234;48.690;9.016;2023-02-13T11:48:33;97943.88;;;6.29;69.67
706;BME280;21234;48.690;9.016;2023-02-13T11:51:01;97936.94;;;6.50;70.50
706;BME280;21234;48.690;9.016;2023-02-13T11:53:30;97932.47;;;6.71;68.21
706;BME280;21234;48.690;9.016;2023-02-13T11:56:05;97929.19;;;6.61;67.39
706;BME280;21234;48.690;9.016;2023-02-13T11:58:32;97929.41;;;6.74;67.88
706;BME280;21234;48.690;9.016;2023-02-13T12:01:22;97931.66;;;6.71;68.08
706;BME280;21234;48.690;9.016;2023-02-13T12:04:13;97934.44;;;6.92;67.66
706;BME280;21234;48.690;9.016;2023-02-13T12:06:57;97930.53;;;7.10;67.04
706;BME280;21234;48.690;9.016;2023-02-13T12:09:26;97930.06;;;7.06;65.75
706;BME280;21234;48.690;9.016;2023-02-13T12:11:55;97926.16;;;7.08;65.77
706;BME280;21234;48.690;9.016;2023-02-13T12:14:24;97927.69;;;7.18;65.37
706;BME280;21234;48.690;9.016;2023-02-13T12:16:55;97923.78;;;7.20;65.59
706;BME280;21234;48.690;9.016;2023-02-13T12:19:28;97932.72;;;7.35;66.16
706;BME280;21234;48.690;9.016;2023-02-13T12:22:07;97920.88;;;7.36;64.75
706;BME280;21234;48.690;9.016;2023-02-13T12:24:48;97920.41;;;7.33;64.43
706;BME280;21234;48.690;9.016;2023-02-13T12:27:24;97920.03;;;7.36;64.50
706;BME280;21234;48.690;9.016;2023-02-13T12:30:15;97926.41;;;7.64;65.44
706;BME280;21234;48.690;9.016;2023-02-13T12:32:56;97921.44;;;7.68;63.76
706;BME280;21234;48.690;9.016;2023-02-13T12:35:40;97913.72;;;7.50;63.66
706;BME280;21234;48.690;9.016;2023-02-13T12:38:21;97927.38;;;7.78;65.46
706;BME280;21234;48.690;9.016;2023-02-13T12:41:05;97919.13;;;7.86;64.23
706;BME280;21234;48.690;9.016;2023-02-13T12:44:03;97916.34;;;8.01;63.75
706;BME280;21234;48.690;9.016;2023-02-13T12:46:39;97917.94;;;8.17;62.18
706;BME280;21234;48.690;9.016;2023-02-13T12:49:20;97912.88;;;8.07;63.43
706;BME280;21234;48.690;9.016;2023-02-13T12:51:57;97909.19;;;8.36;62.67
706;BME280;21234;48.690;9.016;2023-02-13T12:54:41;97908.22;;;8.44;62.26
706;BME280;21234;48.690;9.016;2023-02-13T12:57:20;97905.78;;;8.55;62.57
706;BME280;21234;48.690;9.016;2023-02-13T13:00:02;97894.44;;;8.45;60.30
706;BME280;21234;48.690;9.016;2023-02-13T13:02:52;97895.78;;;8.56;60.72
706;BME280;21234;48.690;9.016;2023-02-13T13:05:26;97898.75;;;8.33;60.08
706;BME280;21234;48.690;9.016;2023-02-13T13:08:13;97891.97;;;8.50;60.72
706;BME280;21234;48.690;9.016;2023-02-13T13:10:51;97888.34;;;8.64;61.06
706;BME280;21234;48.690;9.016;2023-02-13T13:13:31;97890.31;;;8.84;59.41
706;BME280;21234;48.690;9.016;2023-02-13T13:16:08;97892.75;;;9.06;57.39
706;BME280;21234;48.690;9.016;2023-02-13T13:18:45;97893.16;;;9.03;57.20
706;BME280;21234;48.690;9.016;2023-02-13T13:21:26;97896.91;;;9.02;56.95
706;BME280;21234;48.690;9.016;2023-02-13T13:23:57;97895.75;;;8.84;56.14
706;BME280;21234;48.690;9.016;2023-02-13T13:26:31;97889.16;;;8.99;56.70
706;BME280;21234;48.690;9.016;2023-02-13T13:29:04;97888.00;;;9.22;56.34
706;BME280;21234;48.690;9.016;2023-02-13T13:31:34;97891.22;;;9.38;56.31
706;BME280;21234;48.690;9.016;2023-02-13T13:34:05;97890.44;;;9.58;55.39
706;BME280;21234;48.690;9.016;2023-02-13T13:36:43;97884.84;;;9.86;54.50
706;BME280;21234;48.690;9.016;2023-02-13T13:39:23;97876.53;;;10.07;54.09
706;BME280;21234;48.690;9.016;2023-02-13T13:41:55;97873.81;;;10.00;53.57
706;BME280;21234;48.690;9.016;2023-02-13T13:44:42;97877.78;;;10.64;52.24
706;BME280;21234;48.690;9.016;2023-02-13T13:47:23;97878.38;;;10.86;51.42
706;BME280;21234;48.690;9.016;2023-02-13T13:49:53;97871.38;;;11.16;52.23
706;BME280;21234;48.690;9.016;2023-02-13T13:52:23;97874.88;;;11.30;50.63
706;BME280;21234;48.690;9.016;2023-02-13T13:54:51;97862.88;;;11.82;49.84
706;BME280;21234;48.690;9.016;2023-02-13T13:57:19;97869.06;;;12.27;49.53
706;BME280;21234;48.690;9.016;2023-02-13T14:03:12;97870.47;;;14.89;42.42